sensor_id;sensor_type;location;lat;lon;timestamp;P1;durP1;ratioP1;P2;durP2;ratioP2
70576;SDS011;58138;43.138;24.702;2023-08-17T00:00:26;18.90;;;15.25;;
70576;SDS011;58138;43.138;24.702;2023-08-17T00:02:51;17.55;;;14.65;;
70576;SDS011;58138;43.138;24.702;2023-08-17T00:05:17;18.33;;;15.30;;
70576;SDS011;58138;43.138;24.702;2023-08-17T00:10:18;17.90;;;14.30;;
70576;SDS011;58138;43.138;24.702;2023-08-17T00:12:44;18.58;;;14.60;;
70576;SDS011;58138;43.138;24.702;2023-08-17T00:15:09;16.98;;;15.18;;
70576;SDS011;58138;43.138;24.702;2023-08-17T00:17:35;16.98;;;15.15;;
70576;SDS011;58138;43.138;24.702;2023-08-17T00:20:00;17.45;;;15.77;;
70576;SDS011;58138;43.138;24.702;2023-08-17T00:22:26;17.65;;;15.75;;
70576;SDS011;58138;43.138;24.702;2023-08-17T00:24:51;20.55;;;16.13;;
70576;SDS011;58138;43.138;24.702;2023-08-17T00:27:17;18.85;;;16.75;;
70576;SDS011;58138;43.138;24.702;2023-08-17T00:29:42;19.80;;;17.70;;
70576;SDS011;58138;43.138;24.702;2023-08-17T00:32:08;23.08;;;17.48;;
70576;SDS011;58138;43.138;24.702;2023-08-17T00:34:33;19.70;;;16.95;;
70576;SDS011;58138;43.138;24.702;2023-08-17T00:37:02;19.80;;;17.85;;
70576;SDS011;58138;43.138;24.702;2023-08-17T00:39:28;19.67;;;17.52;;
70576;SDS011;58138;43.138;24.702;2023-08-17T00:41:53;22.05;;;17.95;;
70576;SDS011;58138;43.138;24.702;2023-08-17T00:44:19;23.10;;;18.25;;
70576;SDS011;58138;43.138;24.702;2023-08-17T00:46:44;21.88;;;17.67;;
70576;SDS011;58138;43.138;24.702;2023-08-17T00:49:10;22.92;;;18.20;;
70576;SDS011;58138;43.138;24.702;2023-08-17T00:51:36;19.70;;;17.30;;
70576;SDS011;58138;43.138;24.702;2023-08-17T00:54:04;17.80;;;15.88;;
70576;SDS011;58138;43.138;24.702;2023-08-17T00:56:29;18.60;;;15.80;;
70576;SDS011;58138;43.138;24.702;2023-08-17T00:58:55;18.95;;;17.00;;
70576;SDS011;58138;43.138;24.702;2023-08-17T01:01:22;20.30;;;18.20;;
70576;SDS011;58138;43.138;24.702;2023-08-17T01:03:48;19.52;;;17.48;;
70576;SDS011;58138;43.138;24.702;2023-08-17T01:06:13;20.00;;;17.05;;
70576;SDS011;58138;43.138;24.702;2023-08-17T01:08:39;22.35;;;17.98;;
70576;SDS011;58138;43.138;24.702;2023-08-17T01:16:52;21.08;;;18.55;;
70576;SDS011;58138;43.138;24.702;2023-08-17T01:19:26;21.90;;;17.50;;
70576;SDS011;58138;43.138;24.702;2023-08-17T01:21:54;21.77;;;17.48;;
70576;SDS011;58138;43.138;24.702;2023-08-17T01:24:23;23.95;;;17.05;;
70576;SDS011;58138;43.138;24.702;2023-08-17T01:26:48;23.42;;;17.23;;
70576;SDS011;58138;43.138;24.702;2023-08-17T01:29:15;20.25;;;17.02;;
70576;SDS011;58138;43.138;24.702;2023-08-17T01:31:44;18.83;;;16.85;;
70576;SDS011;58138;43.138;24.702;2023-08-17T01:34:18;18.48;;;16.38;;
70576;SDS011;58138;43.138;24.702;2023-08-17T01:36:50;18.35;;;16.50;;
70576;SDS011;58138;43.138;24.702;2023-08-17T01:39:18;18.48;;;16.60;;
70576;SDS011;58138;43.138;24.702;2023-08-17T01:41:46;22.17;;;17.00;;
70576;SDS011;58138;43.138;24.702;2023-08-17T01:44:12;18.98;;;17.08;;
70576;SDS011;58138;43.138;24.702;2023-08-17T01:46:38;18.50;;;16.58;;
70576;SDS011;58138;43.138;24.702;2023-08-17T01:49:04;26.10;;;16.75;;
70576;SDS011;58138;43.138;24.702;2023-08-17T01:51:29;21.85;;;16.83;;
70576;SDS011;58138;43.138;24.702;2023-08-17T01:53:55;19.58;;;17.38;;
70576;SDS011;58138;43.138;24.702;2023-08-17T01:56:20;22.10;;;17.58;;
70576;SDS011;58138;43.138;24.702;2023-08-17T01:58:46;18.80;;;16.90;;
70576;SDS011;58138;43.138;24.702;2023-08-17T02:01:12;20.05;;;15.52;;
70576;SDS011;58138;43.138;24.702;2023-08-17T02:03:37;20.52;;;16.23;;
70576;SDS011;58138;43.138;24.702;2023-08-17T02:06:02;21.52;;;17.98;;
70576;SDS011;58138;43.138;24.702;2023-08-17T02:08:29;18.85;;;16.90;;
70576;SDS011;58138;43.138;24.702;2023-08-17T02:10:54;21.50;;;18.80;;
70576;SDS011;58138;43.138;24.702;2023-08-17T02:13:20;19.05;;;17.15;;
70576;SDS011;58138;43.138;24.702;2023-08-17T02:15:46;20.52;;;18.30;;
70576;SDS011;58138;43.138;24.702;2023-08-17T02:18:12;19.77;;;17.70;;
70576;SDS011;58138;43.138;24.702;2023-08-17T02:20:37;19.60;;;17.63;;
70576;SDS011;58138;43.138;24.702;2023-08-17T02:23:03;21.05;;;18.85;;
70576;SDS011;58138;43.138;24.702;2023-08-17T02:25:29;19.75;;;17.65;;
70576;SDS011;58138;43.138;24.702;2023-08-17T02:28:00;21.13;;;17.70;;
70576;SDS011;58138;43.138;24.702;2023-08-17T02:30:27;21.95;;;17.77;;
70576;SDS011;58138;43.138;24.702;2023-08-17T02:32:53;21.73;;;17.70;;
70576;SDS011;58138;43.138;24.702;2023-08-17T02:35:18;20.15;;;16.90;;
70576;SDS011;58138;43.138;24.702;2023-08-17T02:37:44;20.38;;;17.50;;
70576;SDS011;58138;43.138;24.702;2023-08-17T02:40:09;18.88;;;16.83;;
70576;SDS011;58138;43.138;24.702;2023-08-17T02:42:35;19.10;;;16.23;;
70576;SDS011;58138;43.138;24.702;2023-08-17T02:45:01;22.13;;;17.00;;
70576;SDS011;58138;43.138;24.702;2023-08-17T02:47:26;21.40;;;17.75;;
70576;SDS011;58138;43.138;24.702;2023-08-17T02:49:52;20.65;;;18.27;;
70576;SDS011;58138;43.138;24.702;2023-08-17T02:52:17;26.02;;;20.08;;
70576;SDS011;58138;43.138;24.702;2023-08-17T02:54:43;21.38;;;19.27;;
70576;SDS011;58138;43.138;24.702;2023-08-17T02:57:08;22.40;;;19.98;;
70576;SDS011;58138;43.138;24.702;2023-08-17T02:59:34;23.98;;;18.73;;
70576;SDS011;58138;43.138;24.702;2023-08-17T03:02:00;20.85;;;18.75;;
70576;SDS011;58138;43.138;24.702;2023-08-17T03:04:25;20.65;;;18.65;;
70576;SDS011;58138;43.138;24.702;2023-08-17T03:06:50;21.33;;;19.15;;
70576;SDS011;58138;43.138;24.702;2023-08-17T03:09:16;21.60;;;19.05;;
70576;SDS011;58138;43.138;24.702;2023-08-17T03:11:42;22.25;;;18.77;;
70576;SDS011;58138;43.138;24.702;2023-08-17T03:14:07;22.63;;;19.80;;
70576;SDS011;58138;43.138;24.702;2023-08-17T03:16:33;23.25;;;19.17;;
70576;SDS011;58138;43.138;24.702;2023-08-17T03:18:58;21.15;;;18.88;;
70576;SDS011;58138;43.138;24.702;2023-08-17T03:21:24;20.35;;;18.20;;
70576;SDS011;58138;43.138;24.702;2023-08-17T03:23:49;23.15;;;18.60;;
70576;SDS011;58138;43.138;24.702;2023-08-17T03:26:15;26.00;;;19.45;;
70576;SDS011;58138;43.138;24.702;2023-08-17T03:28:41;28.05;;;18.63;;
70576;SDS011;58138;43.138;24.702;2023-08-17T03:31:06;25.23;;;18.27;;
70576;SDS011;58138;43.138;24.702;2023-08-17T03:33:34;23.23;;;19.88;;
70576;SDS011;58138;43.138;24.702;2023-08-17T03:36:00;38.10;;;29.33;;
70576;SDS011;58138;43.138;24.702;2023-08-17T03:38:26;24.33;;;18.55;;
70576;SDS011;58138;43.138;24.702;2023-08-17T03:40:52;26.83;;;21.17;;
70576;SDS011;58138;43.138;24.702;2023-08-17T03:43:17;25.92;;;18.75;;
70576;SDS011;58138;43.138;24.702;2023-08-17T03:45:43;21.13;;;17.88;;
70576;SDS011;58138;43.138;24.702;2023-08-17T03:48:09;22.58;;;18.27;;
70576;SDS011;58138;43.138;24.702;2023-08-17T03:50:35;30.58;;;19.05;;
70576;SDS011;58138;43.138;24.702;2023-08-17T03:53:00;25.38;;;19.10;;
70576;SDS011;58138;43.138;24.702;2023-08-17T03:55:26;23.30;;;18.85;;
70576;SDS011;58138;43.138;24.702;2023-08-17T03:57:51;24.23;;;18.92;;
70576;SDS011;58138;43.138;24.702;2023-08-17T04:00:17;24.23;;;17.92;;
70576;SDS011;58138;43.138;24.702;2023-08-17T04:02:43;20.40;;;17.75;;
70576;SDS011;58138;43.138;24.702;2023-08-17T04:05:08;26.80;;;20.80;;
70576;SDS011;58138;43.138;24.702;2023-08-17T04:07:34;19.60;;;17.60;;
70576;SDS011;58138;43.138;24.702;2023-08-17T04:09:59;23.67;;;17.65;;
70576;SDS011;58138;43.138;24.702;2023-08-17T04:12:25;21.50;;;17.65;;
70576;SDS011;58138;43.138;24.702;2023-08-17T04:14:51;18.95;;;16.08;;
70576;SDS011;58138;43.138;24.702;2023-08-17T04:17:16;21.38;;;15.02;;
70576;SDS011;58138;43.138;24.702;2023-08-17T04:19:42;20.10;;;16.50;;
70576;SDS011;58138;43.138;24.702;2023-08-17T04:22:07;16.73;;;15.05;;
70576;SDS011;58138;43.138;24.702;2023-08-17T04:24:33;19.98;;;16.40;;
70576;SDS011;58138;43.138;24.702;2023-08-17T04:26:59;16.95;;;15.27;;
70576;SDS011;58138;43.138;24.702;2023-08-17T04:29:24;18.73;;;14.63;;
70576;SDS011;58138;43.138;24.702;2023-08-17T04:31:50;21.63;;;17.15;;
70576;SDS011;58138;43.138;24.702;2023-08-17T04:34:16;19.23;;;17.25;;
70576;SDS011;58138;43.138;24.702;2023-08-17T04:36:41;19.92;;;16.40;;
70576;SDS011;58138;43.138;24.702;2023-08-17T04:39:07;23.98;;;21.00;;
70576;SDS011;58138;43.138;24.702;2023-08-17T04:41:34;18.85;;;16.95;;
70576;SDS011;58138;43.138;24.702;2023-08-17T04:43:59;20.30;;;16.33;;
70576;SDS011;58138;43.138;24.702;2023-08-17T04:46:25;17.45;;;15.63;;
70576;SDS011;58138;43.138;24.702;2023-08-17T04:48:50;18.92;;;14.98;;
70576;SDS011;58138;43.138;24.702;2023-08-17T04:51:17;16.48;;;14.85;;
70576;SDS011;58138;43.138;24.702;2023-08-17T04:53:43;16.77;;;15.07;;
70576;SDS011;58138;43.138;24.702;2023-08-17T04:56:08;16.80;;;14.40;;
70576;SDS011;58138;43.138;24.702;2023-08-17T04:58:34;16.63;;;14.90;;
70576;SDS011;58138;43.138;24.702;2023-08-17T05:00:59;18.33;;;13.88;;
70576;SDS011;58138;43.138;24.702;2023-08-17T05:03:25;16.27;;;14.55;;
70576;SDS011;58138;43.138;24.702;2023-08-17T05:05:53;16.75;;;14.45;;
70576;SDS011;58138;43.138;24.702;2023-08-17T05:08:19;15.55;;;13.43;;
70576;SDS011;58138;43.138;24.702;2023-08-17T05:10:47;17.25;;;13.73;;
70576;SDS011;58138;43.138;24.702;2023-08-17T05:13:12;15.27;;;13.50;;
70576;SDS011;58138;43.138;24.702;2023-08-17T05:15:38;14.82;;;13.27;;
70576;SDS011;58138;43.138;24.702;2023-08-17T05:18:04;13.50;;;12.10;;
70576;SDS011;58138;43.138;24.702;2023-08-17T05:20:30;14.82;;;12.63;;
70576;SDS011;58138;43.138;24.702;2023-08-17T05:22:55;15.38;;;12.30;;
70576;SDS011;58138;43.138;24.702;2023-08-17T05:25:21;18.85;;;12.20;;
70576;SDS011;58138;43.138;24.702;2023-08-17T05:27:47;17.02;;;12.35;;
70576;SDS011;58138;43.138;24.702;2023-08-17T05:30:14;14.05;;;12.13;;
70576;SDS011;58138;43.138;24.702;2023-08-17T05:32:40;15.07;;;11.10;;
70576;SDS011;58138;43.138;24.702;2023-08-17T05:35:05;13.13;;;11.63;;
70576;SDS011;58138;43.138;24.702;2023-08-17T05:37:31;13.15;;;11.23;;
70576;SDS011;58138;43.138;24.702;2023-08-17T05:39:57;14.13;;;11.70;;
70576;SDS011;58138;43.138;24.702;2023-08-17T05:42:23;14.18;;;11.70;;
70576;SDS011;58138;43.138;24.702;2023-08-17T05:44:49;12.20;;;11.00;;
70576;SDS011;58138;43.138;24.702;2023-08-17T05:47:14;13.98;;;11.15;;
70576;SDS011;58138;43.138;24.702;2023-08-17T05:49:42;12.18;;;10.95;;
70576;SDS011;58138;43.138;24.702;2023-08-17T05:52:08;16.08;;;10.93;;
70576;SDS011;58138;43.138;24.702;2023-08-17T05:54:33;14.02;;;11.40;;
70576;SDS011;58138;43.138;24.702;2023-08-17T05:56:59;15.05;;;10.50;;
70576;SDS011;58138;43.138;24.702;2023-08-17T05:59:24;13.18;;;10.45;;
70576;SDS011;58138;43.138;24.702;2023-08-17T06:01:50;11.50;;;10.20;;
70576;SDS011;58138;43.138;24.702;2023-08-17T06:04:15;11.98;;;10.02;;
70576;SDS011;58138;43.138;24.702;2023-08-17T06:06:41;12.23;;;9.57;;
70576;SDS011;58138;43.138;24.702;2023-08-17T06:09:07;10.52;;;9.48;;
70576;SDS011;58138;43.138;24.702;2023-08-17T06:11:33;10.57;;;9.50;;
70576;SDS011;58138;43.138;24.702;2023-08-17T06:13:59;12.05;;;9.82;;
70576;SDS011;58138;43.138;24.702;2023-08-17T06:16:25;12.32;;;9.88;;
70576;SDS011;58138;43.138;24.702;2023-08-17T06:18:50;10.65;;;9.30;;
70576;SDS011;58138;43.138;24.702;2023-08-17T06:21:16;12.18;;;10.05;;
70576;SDS011;58138;43.138;24.702;2023-08-17T06:23:41;11.18;;;9.20;;
70576;SDS011;58138;43.138;24.702;2023-08-17T06:26:07;11.55;;;9.07;;
70576;SDS011;58138;43.138;24.702;2023-08-17T06:28:33;12.25;;;9.45;;
70576;SDS011;58138;43.138;24.702;2023-08-17T06:30:58;12.60;;;9.23;;
70576;SDS011;58138;43.138;24.702;2023-08-17T06:33:24;10.40;;;9.30;;
70576;SDS011;58138;43.138;24.702;2023-08-17T06:35:49;13.77;;;9.48;;
70576;SDS011;58138;43.138;24.702;2023-08-17T06:38:15;12.20;;;8.93;;
70576;SDS011;58138;43.138;24.702;2023-08-17T06:40:41;11.77;;;8.30;;
70576;SDS011;58138;43.138;24.702;2023-08-17T06:43:06;11.93;;;8.98;;
70576;SDS011;58138;43.138;24.702;2023-08-17T06:45:32;17.33;;;9.18;;
70576;SDS011;58138;43.138;24.702;2023-08-17T06:47:58;10.05;;;8.73;;
70576;SDS011;58138;43.138;24.702;2023-08-17T06:50:23;11.23;;;8.50;;
70576;SDS011;58138;43.138;24.702;2023-08-17T06:52:49;12.80;;;8.32;;
70576;SDS011;58138;43.138;24.702;2023-08-17T06:55:15;10.38;;;8.80;;
70576;SDS011;58138;43.138;24.702;2023-08-17T06:57:41;11.45;;;8.10;;
70576;SDS011;58138;43.138;24.702;2023-08-17T07:00:07;15.48;;;8.70;;
70576;SDS011;58138;43.138;24.702;2023-08-17T07:02:33;13.85;;;7.78;;
70576;SDS011;58138;43.138;24.702;2023-08-17T07:04:59;12.45;;;7.25;;
70576;SDS011;58138;43.138;24.702;2023-08-17T07:07:25;10.10;;;7.10;;
70576;SDS011;58138;43.138;24.702;2023-08-17T07:09:51;10.68;;;7.60;;
70576;SDS011;58138;43.138;24.702;2023-08-17T07:12:17;14.13;;;6.35;;
70576;SDS011;58138;43.138;24.702;2023-08-17T07:14:44;10.35;;;6.20;;
70576;SDS011;58138;43.138;24.702;2023-08-17T07:17:09;10.40;;;5.82;;
70576;SDS011;58138;43.138;24.702;2023-08-17T07:19:35;9.15;;;5.88;;
70576;SDS011;58138;43.138;24.702;2023-08-17T07:22:01;7.97;;;5.60;;
70576;SDS011;58138;43.138;24.702;2023-08-17T07:24:26;9.80;;;5.07;;
70576;SDS011;58138;43.138;24.702;2023-08-17T07:26:52;12.23;;;5.43;;
70576;SDS011;58138;43.138;24.702;2023-08-17T07:29:18;9.35;;;4.78;;
70576;SDS011;58138;43.138;24.702;2023-08-17T07:31:43;8.10;;;5.22;;
70576;SDS011;58138;43.138;24.702;2023-08-17T07:34:09;7.40;;;5.13;;
70576;SDS011;58138;43.138;24.702;2023-08-17T07:36:35;10.07;;;5.00;;
70576;SDS011;58138;43.138;24.702;2023-08-17T07:39:01;9.77;;;5.20;;
70576;SDS011;58138;43.138;24.702;2023-08-17T07:41:27;12.80;;;5.25;;
70576;SDS011;58138;43.138;24.702;2023-08-17T07:43:53;7.40;;;4.80;;
70576;SDS011;58138;43.138;24.702;2023-08-17T07:46:18;10.77;;;4.72;;
70576;SDS011;58138;43.138;24.702;2023-08-17T07:48:44;8.38;;;4.82;;
70576;SDS011;58138;43.138;24.702;2023-08-17T07:51:10;6.45;;;4.68;;
70576;SDS011;58138;43.138;24.702;2023-08-17T07:53:35;12.23;;;5.13;;
70576;SDS011;58138;43.138;24.702;2023-08-17T07:56:01;10.35;;;4.93;;
70576;SDS011;58138;43.138;24.702;2023-08-17T07:58:26;6.15;;;4.78;;
70576;SDS011;58138;43.138;24.702;2023-08-17T08:00:52;6.85;;;4.72;;
70576;SDS011;58138;43.138;24.702;2023-08-17T08:03:17;6.97;;;4.72;;
70576;SDS011;58138;43.138;24.702;2023-08-17T08:05:43;9.27;;;4.75;;
70576;SDS011;58138;43.138;24.702;2023-08-17T08:08:08;9.40;;;5.05;;
70576;SDS011;58138;43.138;24.702;2023-08-17T08:10:34;8.00;;;4.93;;
70576;SDS011;58138;43.138;24.702;2023-08-17T08:12:59;8.57;;;5.10;;
70576;SDS011;58138;43.138;24.702;2023-08-17T08:15:25;8.35;;;4.43;;
70576;SDS011;58138;43.138;24.702;2023-08-17T08:17:50;11.43;;;4.82;;
70576;SDS011;58138;43.138;24.702;2023-08-17T08:20:16;7.38;;;3.83;;
70576;SDS011;58138;43.138;24.702;2023-08-17T08:22:42;10.60;;;4.00;;
70576;SDS011;58138;43.138;24.702;2023-08-17T08:25:08;7.70;;;4.32;;
70576;SDS011;58138;43.138;24.702;2023-08-17T08:27:33;9.85;;;4.38;;
70576;SDS011;58138;43.138;24.702;2023-08-17T08:29:59;5.03;;;3.70;;
70576;SDS011;58138;43.138;24.702;2023-08-17T08:32:24;7.70;;;4.03;;
70576;SDS011;58138;43.138;24.702;2023-08-17T08:34:50;7.07;;;3.90;;
70576;SDS011;58138;43.138;24.702;2023-08-17T08:37:15;9.13;;;4.00;;
70576;SDS011;58138;43.138;24.702;2023-08-17T08:39:50;8.77;;;4.03;;
70576;SDS011;58138;43.138;24.702;2023-08-17T08:42:17;8.85;;;4.63;;
70576;SDS011;58138;43.138;24.702;2023-08-17T08:44:43;7.25;;;4.10;;
70576;SDS011;58138;43.138;24.702;2023-08-17T08:47:10;4.50;;;3.00;;
70576;SDS011;58138;43.138;24.702;2023-08-17T08:49:37;6.05;;;3.65;;
70576;SDS011;58138;43.138;24.702;2023-08-17T08:52:04;6.25;;;3.60;;
70576;SDS011;58138;43.138;24.702;2023-08-17T08:54:32;5.82;;;3.50;;
70576;SDS011;58138;43.138;24.702;2023-08-17T08:57:03;7.68;;;4.03;;
70576;SDS011;58138;43.138;24.702;2023-08-17T08:59:29;7.10;;;3.90;;
70576;SDS011;58138;43.138;24.702;2023-08-17T09:01:56;5.75;;;3.97;;
70576;SDS011;58138;43.138;24.702;2023-08-17T09:04:23;7.45;;;3.60;;
70576;SDS011;58138;43.138;24.702;2023-08-17T09:06:48;12.23;;;3.80;;
70576;SDS011;58138;43.138;24.702;2023-08-17T09:09:15;7.13;;;3.22;;
70576;SDS011;58138;43.138;24.702;2023-08-17T09:11:42;6.65;;;3.28;;
70576;SDS011;58138;43.138;24.702;2023-08-17T09:14:07;9.38;;;3.72;;
70576;SDS011;58138;43.138;24.702;2023-08-17T09:16:33;9.32;;;3.63;;
70576;SDS011;58138;43.138;24.702;2023-08-17T09:18:59;5.82;;;3.58;;
70576;SDS011;58138;43.138;24.702;2023-08-17T09:21:24;8.95;;;3.67;;
70576;SDS011;58138;43.138;24.702;2023-08-17T09:23:50;7.30;;;3.22;;
70576;SDS011;58138;43.138;24.702;2023-08-17T09:26:17;9.05;;;5.22;;
70576;SDS011;58138;43.138;24.702;2023-08-17T09:28:45;10.23;;;3.90;;
70576;SDS011;58138;43.138;24.702;2023-08-17T09:31:10;7.78;;;3.80;;
70576;SDS011;58138;43.138;24.702;2023-08-17T09:33:36;7.07;;;3.50;;
70576;SDS011;58138;43.138;24.702;2023-08-17T09:36:02;7.65;;;3.35;;
70576;SDS011;58138;43.138;24.702;2023-08-17T09:38:28;6.25;;;3.97;;
70576;SDS011;58138;43.138;24.702;2023-08-17T09:40:54;8.32;;;3.72;;
70576;SDS011;58138;43.138;24.702;2023-08-17T09:43:19;6.65;;;3.55;;
70576;SDS011;58138;43.138;24.702;2023-08-17T09:45:48;6.60;;;3.85;;
70576;SDS011;58138;43.138;24.702;2023-08-17T09:48:17;6.80;;;4.10;;
70576;SDS011;58138;43.138;24.702;2023-08-17T09:50:44;9.10;;;3.83;;
70576;SDS011;58138;43.138;24.702;2023-08-17T09:53:12;5.93;;;4.43;;
70576;SDS011;58138;43.138;24.702;2023-08-17T09:55:39;7.38;;;3.47;;
70576;SDS011;58138;43.138;24.702;2023-08-17T09:58:06;7.05;;;3.22;;
70576;SDS011;58138;43.138;24.702;2023-08-17T10:00:33;10.40;;;3.60;;
70576;SDS011;58138;43.138;24.702;2023-08-17T10:02:59;5.15;;;3.70;;
70576;SDS011;58138;43.138;24.702;2023-08-17T10:05:28;9.38;;;3.30;;
70576;SDS011;58138;43.138;24.702;2023-08-17T10:07:57;10.10;;;3.92;;
70576;SDS011;58138;43.138;24.702;2023-08-17T10:10:25;7.80;;;3.70;;
70576;SDS011;58138;43.138;24.702;2023-08-17T10:15:32;5.63;;;3.45;;
70576;SDS011;58138;43.138;24.702;2023-08-17T10:18:08;7.18;;;3.42;;
70576;SDS011;58138;43.138;24.702;2023-08-17T10:20:37;10.25;;;3.47;;
70576;SDS011;58138;43.138;24.702;2023-08-17T10:23:40;5.07;;;3.22;;
70576;SDS011;58138;43.138;24.702;2023-08-17T10:26:00;7.45;;;3.50;;
70576;SDS011;58138;43.138;24.702;2023-08-17T10:28:26;10.82;;;3.75;;
70576;SDS011;58138;43.138;24.702;2023-08-17T10:30:52;9.75;;;3.80;;
70576;SDS011;58138;43.138;24.702;2023-08-17T10:33:18;7.82;;;3.60;;
70576;SDS011;58138;43.138;24.702;2023-08-17T10:35:43;7.13;;;3.30;;
70576;SDS011;58138;43.138;24.702;2023-08-17T10:38:10;14.20;;;3.92;;
70576;SDS011;58138;43.138;24.702;2023-08-17T10:40:37;6.93;;;3.50;;
70576;SDS011;58138;43.138;24.702;2023-08-17T10:43:06;6.53;;;3.35;;
70576;SDS011;58138;43.138;24.702;2023-08-17T10:45:32;18.05;;;3.65;;
70576;SDS011;58138;43.138;24.702;2023-08-17T10:50:28;7.15;;;3.60;;
70576;SDS011;58138;43.138;24.702;2023-08-17T10:52:54;11.73;;;3.70;;
70576;SDS011;58138;43.138;24.702;2023-08-17T10:55:39;8.40;;;3.63;;
70576;SDS011;58138;43.138;24.702;2023-08-17T10:58:06;11.93;;;3.10;;
70576;SDS011;58138;43.138;24.702;2023-08-17T11:00:35;17.23;;;3.63;;
70576;SDS011;58138;43.138;24.702;2023-08-17T11:05:35;8.65;;;3.35;;
70576;SDS011;58138;43.138;24.702;2023-08-17T11:08:02;7.82;;;3.15;;
70576;SDS011;58138;43.138;24.702;2023-08-17T11:10:29;5.97;;;2.90;;
70576;SDS011;58138;43.138;24.702;2023-08-17T11:12:55;12.73;;;4.00;;
70576;SDS011;58138;43.138;24.702;2023-08-17T11:15:46;11.65;;;3.58;;
70576;SDS011;58138;43.138;24.702;2023-08-17T11:18:13;7.32;;;3.17;;
70576;SDS011;58138;43.138;24.702;2023-08-17T11:20:40;14.60;;;3.35;;
70576;SDS011;58138;43.138;24.702;2023-08-17T11:23:07;10.15;;;3.63;;
70576;SDS011;58138;43.138;24.702;2023-08-17T11:25:33;10.43;;;3.88;;
70576;SDS011;58138;43.138;24.702;2023-08-17T11:28:02;6.82;;;3.30;;
70576;SDS011;58138;43.138;24.702;2023-08-17T11:30:29;9.68;;;3.70;;
70576;SDS011;58138;43.138;24.702;2023-08-17T11:32:55;6.60;;;3.13;;
70576;SDS011;58138;43.138;24.702;2023-08-17T11:35:24;6.10;;;3.38;;
70576;SDS011;58138;43.138;24.702;2023-08-17T11:37:49;10.43;;;3.03;;
70576;SDS011;58138;43.138;24.702;2023-08-17T11:40:15;8.15;;;3.47;;
70576;SDS011;58138;43.138;24.702;2023-08-17T11:42:41;10.35;;;3.50;;
70576;SDS011;58138;43.138;24.702;2023-08-17T11:45:07;7.15;;;3.97;;
70576;SDS011;58138;43.138;24.702;2023-08-17T11:47:39;5.60;;;3.45;;
70576;SDS011;58138;43.138;24.702;2023-08-17T11:50:12;6.15;;;3.42;;
70576;SDS011;58138;43.138;24.702;2023-08-17T11:52:38;8.23;;;3.53;;
70576;SDS011;58138;43.138;24.702;2023-08-17T11:55:04;18.05;;;3.50;;
70576;SDS011;58138;43.138;24.702;2023-08-17T11:57:34;5.70;;;3.25;;
70576;SDS011;58138;43.138;24.702;2023-08-17T12:00:01;5.85;;;3.50;;
70576;SDS011;58138;43.138;24.702;2023-08-17T12:02:28;11.68;;;3.10;;
70576;SDS011;58138;43.138;24.702;2023-08-17T12:04:55;5.43;;;3.20;;
70576;SDS011;58138;43.138;24.702;2023-08-17T12:07:21;5.65;;;3.00;;
70576;SDS011;58138;43.138;24.702;2023-08-17T12:09:49;9.75;;;3.55;;
70576;SDS011;58138;43.138;24.702;2023-08-17T12:12:19;9.45;;;3.20;;
70576;SDS011;58138;43.138;24.702;2023-08-17T12:14:46;3.90;;;3.17;;
70576;SDS011;58138;43.138;24.702;2023-08-17T12:17:19;11.18;;;3.33;;
70576;SDS011;58138;43.138;24.702;2023-08-17T12:19:48;9.05;;;3.00;;
70576;SDS011;58138;43.138;24.702;2023-08-17T12:22:16;5.82;;;3.33;;
70576;SDS011;58138;43.138;24.702;2023-08-17T12:24:41;6.50;;;3.00;;
70576;SDS011;58138;43.138;24.702;2023-08-17T12:27:10;5.85;;;3.10;;
70576;SDS011;58138;43.138;24.702;2023-08-17T12:29:48;7.95;;;3.20;;
70576;SDS011;58138;43.138;24.702;2023-08-17T12:32:14;6.63;;;3.22;;
70576;SDS011;58138;43.138;24.702;2023-08-17T12:34:41;5.50;;;2.85;;
70576;SDS011;58138;43.138;24.702;2023-08-17T12:37:08;8.35;;;2.83;;
70576;SDS011;58138;43.138;24.702;2023-08-17T12:39:35;7.78;;;2.83;;
70576;SDS011;58138;43.138;24.702;2023-08-17T12:42:00;6.15;;;2.90;;
70576;SDS011;58138;43.138;24.702;2023-08-17T12:44:26;10.20;;;8.77;;
70576;SDS011;58138;43.138;24.702;2023-08-17T12:46:52;4.00;;;3.20;;
70576;SDS011;58138;43.138;24.702;2023-08-17T12:49:17;5.63;;;3.10;;
70576;SDS011;58138;43.138;24.702;2023-08-17T12:51:43;8.63;;;3.13;;
70576;SDS011;58138;43.138;24.702;2023-08-17T12:54:09;6.82;;;3.50;;
70576;SDS011;58138;43.138;24.702;2023-08-17T12:56:35;11.05;;;3.15;;
70576;SDS011;58138;43.138;24.702;2023-08-17T12:59:00;10.60;;;3.38;;
70576;SDS011;58138;43.138;24.702;2023-08-17T13:01:26;5.78;;;4.32;;
70576;SDS011;58138;43.138;24.702;2023-08-17T13:03:52;3.85;;;2.78;;
70576;SDS011;58138;43.138;24.702;2023-08-17T13:06:17;5.60;;;2.78;;
70576;SDS011;58138;43.138;24.702;2023-08-17T13:08:43;7.22;;;2.60;;
70576;SDS011;58138;43.138;24.702;2023-08-17T13:11:10;6.75;;;3.05;;
70576;SDS011;58138;43.138;24.702;2023-08-17T13:13:35;3.85;;;1.63;;
70576;SDS011;58138;43.138;24.702;2023-08-17T13:16:01;7.43;;;5.30;;
70576;SDS011;58138;43.138;24.702;2023-08-17T13:18:26;5.05;;;2.80;;
70576;SDS011;58138;43.138;24.702;2023-08-17T13:20:53;4.63;;;2.83;;
70576;SDS011;58138;43.138;24.702;2023-08-17T13:23:19;10.77;;;3.13;;
70576;SDS011;58138;43.138;24.702;2023-08-17T13:25:44;5.63;;;3.08;;
70576;SDS011;58138;43.138;24.702;2023-08-17T13:28:10;5.47;;;3.03;;
70576;SDS011;58138;43.138;24.702;2023-08-17T13:30:37;6.07;;;3.08;;
70576;SDS011;58138;43.138;24.702;2023-08-17T13:33:03;7.22;;;3.00;;
70576;SDS011;58138;43.138;24.702;2023-08-17T13:35:29;10.73;;;2.95;;
70576;SDS011;58138;43.138;24.702;2023-08-17T13:37:54;5.97;;;2.65;;
70576;SDS011;58138;43.138;24.702;2023-08-17T13:40:20;5.00;;;2.90;;
70576;SDS011;58138;43.138;24.702;2023-08-17T13:42:46;7.88;;;3.28;;
70576;SDS011;58138;43.138;24.702;2023-08-17T13:45:11;7.53;;;3.17;;
70576;SDS011;58138;43.138;24.702;2023-08-17T13:47:37;5.63;;;2.92;;
70576;SDS011;58138;43.138;24.702;2023-08-17T13:50:03;9.32;;;2.75;;
70576;SDS011;58138;43.138;24.702;2023-08-17T13:52:29;13.27;;;3.10;;
70576;SDS011;58138;43.138;24.702;2023-08-17T13:54:54;9.15;;;3.10;;
70576;SDS011;58138;43.138;24.702;2023-08-17T13:57:20;5.47;;;3.30;;
70576;SDS011;58138;43.138;24.702;2023-08-17T13:59:45;6.97;;;3.50;;
70576;SDS011;58138;43.138;24.702;2023-08-17T14:02:11;7.38;;;3.13;;
70576;SDS011;58138;43.138;24.702;2023-08-17T14:04:36;8.40;;;3.28;;
70576;SDS011;58138;43.138;24.702;2023-08-17T14:07:02;7.18;;;3.40;;
70576;SDS011;58138;43.138;24.702;2023-08-17T14:09:29;6.95;;;3.42;;
70576;SDS011;58138;43.138;24.702;2023-08-17T14:11:55;11.05;;;5.68;;
70576;SDS011;58138;43.138;24.702;2023-08-17T14:14:20;10.43;;;3.83;;
70576;SDS011;58138;43.138;24.702;2023-08-17T14:16:46;6.68;;;3.92;;
70576;SDS011;58138;43.138;24.702;2023-08-17T14:19:11;6.65;;;3.20;;
70576;SDS011;58138;43.138;24.702;2023-08-17T14:21:37;9.27;;;3.53;;
70576;SDS011;58138;43.138;24.702;2023-08-17T14:24:02;9.77;;;3.03;;
70576;SDS011;58138;43.138;24.702;2023-08-17T14:26:29;10.45;;;3.67;;
70576;SDS011;58138;43.138;24.702;2023-08-17T14:28:55;12.80;;;3.60;;
70576;SDS011;58138;43.138;24.702;2023-08-17T14:31:20;5.68;;;2.72;;